createdAt,value
2018-05-29T00:00:36.821Z,22.89
2018-05-29T00:03:04.303Z,23.00
2018-05-29T00:05:31.779Z,22.86
2018-05-29T00:07:59.273Z,22.92
2018-05-29T00:10:26.748Z,22.81
2018-05-29T00:12:54.207Z,22.82
2018-05-29T00:15:21.695Z,22.69
2018-05-29T00:17:49.160Z,22.77
2018-05-29T00:20:16.669Z,22.56
2018-05-29T00:22:44.128Z,22.71
2018-05-29T00:25:11.606Z,22.76
2018-05-29T00:27:39.097Z,22.77
2018-05-29T00:30:06.569Z,22.80
2018-05-29T00:32:34.050Z,22.59
2018-05-29T00:35:01.515Z,22.62
2018-05-29T00:37:28.979Z,22.76
2018-05-29T00:39:56.468Z,22.76
2018-05-29T00:42:23.943Z,22.71
2018-05-29T00:44:51.430Z,22.63
2018-05-29T00:47:18.900Z,22.55
2018-05-29T00:49:46.567Z,22.66
2018-05-29T00:52:14.040Z,22.63
2018-05-29T00:54:41.516Z,22.55
2018-05-29T00:57:08.999Z,22.61
2018-05-29T00:59:36.467Z,22.60
2018-05-29T01:02:03.952Z,22.62
2018-05-29T01:04:31.416Z,22.57
2018-05-29T01:06:58.883Z,22.76
2018-05-29T01:09:26.374Z,22.62
2018-05-29T01:11:53.854Z,22.63
2018-05-29T01:14:21.353Z,22.42
2018-05-29T01:16:48.813Z,22.44
2018-05-29T01:19:16.280Z,22.53
2018-05-29T01:21:43.772Z,22.56
2018-05-29T01:24:11.237Z,22.51
2018-05-29T01:26:38.731Z,22.53
2018-05-29T01:29:06.376Z,22.43
2018-05-29T01:31:33.851Z,22.43
2018-05-29T01:34:01.348Z,22.40
2018-05-29T01:36:28.815Z,22.34
2018-05-29T01:38:56.314Z,22.36
2018-05-29T01:41:23.787Z,22.10
2018-05-29T01:43:51.255Z,21.95
2018-05-29T01:46:18.735Z,22.08
2018-05-29T01:48:46.224Z,22.09
2018-05-29T01:51:13.715Z,22.07
2018-05-29T01:53:41.181Z,22.14
2018-05-29T01:56:08.666Z,22.08
2018-05-29T01:58:36.153Z,22.03
2018-05-29T02:01:03.620Z,21.76
2018-05-29T02:03:31.109Z,21.97
2018-05-29T02:05:58.567Z,21.94
2018-05-29T02:08:26.036Z,21.84
2018-05-29T02:10:53.532Z,21.79
2018-05-29T02:13:21.007Z,21.83
2018-05-29T02:15:48.497Z,21.76
2018-05-29T02:18:15.961Z,21.81
2018-05-29T02:20:43.450Z,21.71
2018-05-29T02:23:10.924Z,21.88
2018-05-29T02:25:38.396Z,21.75
2018-05-29T02:28:05.899Z,21.70
2018-05-29T02:30:33.374Z,21.69
2018-05-29T02:33:00.857Z,21.58
2018-05-29T02:35:28.316Z,21.64
2018-05-29T02:37:55.807Z,21.61
2018-05-29T02:40:23.277Z,21.47
2018-05-29T02:42:50.753Z,21.56
2018-05-29T02:45:18.241Z,21.52
2018-05-29T02:47:45.721Z,21.50
2018-05-29T02:50:13.203Z,21.43
2018-05-29T02:52:40.670Z,21.36
2018-05-29T02:55:08.132Z,21.30
2018-05-29T02:57:35.620Z,21.18
2018-05-29T03:00:03.090Z,21.01
2018-05-29T03:02:30.944Z,21.07
2018-05-29T03:04:58.417Z,20.96
2018-05-29T03:07:25.887Z,20.89
2018-05-29T03:09:53.390Z,20.84
2018-05-29T03:12:20.859Z,20.83
2018-05-29T03:14:49.479Z,20.84
2018-05-29T03:17:16.955Z,21.05
2018-05-29T03:19:44.431Z,20.88
2018-05-29T03:22:11.917Z,20.91
2018-05-29T03:24:39.387Z,21.01
2018-05-29T03:27:06.877Z,20.96
2018-05-29T03:29:34.356Z,20.89
2018-05-29T03:32:01.852Z,21.10
2018-05-29T03:34:29.350Z,21.24
2018-05-29T03:36:56.800Z,21.32
2018-05-29T03:39:24.439Z,21.28
2018-05-29T03:41:51.906Z,21.42
2018-05-29T03:44:19.399Z,21.40
2018-05-29T03:46:46.870Z,21.41
2018-05-29T03:49:14.347Z,21.41
2018-05-29T03:51:41.831Z,21.64
2018-05-29T03:54:09.304Z,21.36
2018-05-29T03:56:36.789Z,21.73
2018-05-29T03:59:04.253Z,21.54
2018-05-29T04:01:31.722Z,21.67
2018-05-29T04:03:59.208Z,21.74
2018-05-29T04:06:26.675Z,21.58
2018-05-29T04:08:54.172Z,21.74
2018-05-29T04:11:21.633Z,21.72
2018-05-29T04:13:49.100Z,21.76
2018-05-29T04:16:16.593Z,21.67
2018-05-29T04:18:44.060Z,21.69
2018-05-29T04:21:11.577Z,21.69
2018-05-29T04:23:39.039Z,21.74
2018-05-29T04:26:06.512Z,21.83
2018-05-29T04:28:33.996Z,21.84
2018-05-29T04:31:01.473Z,21.75
2018-05-29T04:33:29.175Z,22.00
2018-05-29T04:35:56.644Z,21.98
2018-05-29T04:38:24.135Z,22.03
2018-05-29T04:40:51.604Z,22.10
2018-05-29T04:43:19.082Z,22.09
2018-05-29T04:45:46.583Z,22.27
2018-05-29T04:48:14.043Z,22.09
2018-05-29T04:50:41.532Z,22.26
2018-05-29T04:56:06.929Z,22.43
2018-05-29T04:58:34.401Z,22.56
2018-05-29T05:01:01.878Z,22.46
2018-05-29T05:03:29.359Z,22.59
2018-05-29T05:05:56.822Z,22.56
2018-05-29T05:08:24.338Z,22.81
2018-05-29T05:10:52.080Z,22.70
2018-05-29T05:13:19.556Z,22.85
2018-05-29T05:15:47.037Z,22.95
2018-05-29T05:18:14.506Z,22.90
2018-05-29T05:20:41.984Z,22.99
2018-05-29T05:23:09.457Z,23.15
2018-05-29T05:25:37.462Z,23.27
2018-05-29T05:28:04.947Z,23.34
2018-05-29T05:30:32.413Z,23.21
2018-05-29T05:32:59.907Z,23.17
2018-05-29T05:35:27.392Z,23.29
2018-05-29T05:37:54.872Z,23.51
2018-05-29T05:40:22.353Z,23.58
2018-05-29T05:42:49.833Z,23.71
2018-05-29T05:45:17.311Z,23.62
2018-05-29T05:47:44.778Z,23.70
2018-05-29T05:50:12.244Z,23.79
2018-05-29T05:52:40.778Z,23.78
2018-05-29T05:55:08.247Z,23.74
2018-05-29T05:57:35.738Z,23.79
2018-05-29T06:00:03.217Z,23.90
2018-05-29T06:02:30.695Z,23.87
2018-05-29T06:04:58.182Z,23.97
2018-05-29T06:07:25.650Z,24.12
2018-05-29T06:09:53.156Z,23.96
2018-05-29T06:12:20.620Z,24.06
2018-05-29T06:14:48.088Z,24.02
2018-05-29T06:17:15.576Z,24.27
2018-05-29T06:19:43.321Z,24.27
2018-05-29T06:22:10.796Z,24.36
2018-05-29T06:24:38.288Z,24.37
2018-05-29T06:27:05.761Z,24.53
2018-05-29T06:29:33.259Z,24.60
2018-05-29T06:32:00.733Z,24.73
2018-05-29T06:34:28.193Z,24.88
2018-05-29T06:36:55.688Z,24.78
2018-05-29T06:39:23.175Z,24.89
2018-05-29T06:41:50.660Z,25.02
2018-05-29T06:44:18.132Z,24.90
2018-05-29T06:46:45.821Z,25.31
2018-05-29T06:49:13.311Z,25.22
2018-05-29T06:51:40.777Z,25.55
2018-05-29T06:54:08.260Z,25.44
2018-05-29T06:56:35.719Z,25.56
2018-05-29T06:59:03.181Z,25.87
2018-05-29T07:01:30.673Z,25.66
2018-05-29T07:03:58.183Z,25.76
2018-05-29T07:06:25.648Z,25.96
2018-05-29T07:08:53.106Z,25.93
2018-05-29T07:11:20.577Z,25.96
2018-05-29T07:13:48.072Z,26.28
2018-05-29T07:16:15.537Z,26.29
2018-05-29T07:18:43.000Z,26.20
2018-05-29T07:21:10.480Z,26.21
2018-05-29T07:23:37.941Z,26.41
2018-05-29T07:26:05.415Z,26.50
2018-05-29T07:28:32.892Z,26.40
2018-05-29T07:31:00.355Z,26.49
2018-05-29T07:33:27.848Z,26.52
2018-05-29T07:35:55.316Z,26.56
2018-05-29T07:38:22.795Z,26.74
2018-05-29T07:40:50.261Z,26.86
2018-05-29T07:43:17.744Z,26.97
2018-05-29T07:45:45.204Z,27.05
2018-05-29T07:48:12.671Z,27.20
2018-05-29T07:50:40.155Z,27.47
2018-05-29T07:53:07.629Z,27.15
2018-05-29T07:55:35.124Z,27.60
2018-05-29T07:58:02.593Z,27.76
2018-05-29T08:00:30.060Z,27.65
2018-05-29T08:02:57.550Z,27.85
2018-05-29T08:05:25.031Z,27.67
2018-05-29T08:07:52.511Z,27.77
2018-05-29T08:10:19.984Z,27.89
2018-05-29T08:12:47.445Z,27.76
2018-05-29T08:15:14.933Z,27.99
2018-05-29T08:17:42.403Z,28.06
2018-05-29T08:20:09.892Z,27.97
2018-05-29T08:22:37.361Z,28.18
2018-05-29T08:25:04.819Z,28.45
2018-05-29T08:27:32.299Z,28.18
2018-05-29T08:29:59.760Z,28.52
2018-05-29T08:32:27.240Z,28.78
2018-05-29T08:34:54.740Z,28.77
2018-05-29T08:37:22.216Z,28.93
2018-05-29T08:39:49.724Z,28.86
2018-05-29T08:42:17.205Z,29.02
2018-05-29T08:44:44.847Z,28.47
2018-05-29T08:47:12.319Z,28.96
2018-05-29T08:49:39.789Z,29.35
2018-05-29T08:52:07.267Z,29.67
2018-05-29T08:54:34.732Z,29.43
2018-05-29T08:57:02.222Z,29.49
2018-05-29T08:59:29.696Z,29.14
2018-05-29T09:01:57.169Z,29.27
2018-05-29T09:04:24.649Z,29.81
2018-05-29T09:06:52.118Z,29.90
2018-05-29T09:09:19.614Z,29.96
2018-05-29T09:11:47.131Z,29.68
2018-05-29T09:14:14.564Z,29.80
2018-05-29T09:16:42.047Z,29.85
2018-05-29T09:19:09.521Z,29.92
2018-05-29T09:21:37.009Z,29.99
2018-05-29T09:24:04.485Z,30.41
2018-05-29T09:26:31.949Z,30.22
2018-05-29T09:28:59.437Z,30.22
2018-05-29T09:31:26.896Z,30.77
2018-05-29T09:33:54.389Z,30.89
2018-05-29T09:36:21.867Z,29.80
2018-05-29T09:38:49.336Z,29.82
2018-05-29T09:41:16.837Z,30.42
2018-05-29T09:43:44.297Z,30.59
2018-05-29T09:46:11.777Z,30.85
2018-05-29T09:48:39.241Z,30.91
2018-05-29T09:51:06.695Z,31.29
2018-05-29T09:53:34.194Z,31.13
2018-05-29T09:56:01.663Z,31.20
2018-05-29T09:58:29.470Z,30.63
2018-05-29T10:00:56.943Z,31.32
2018-05-29T10:03:24.408Z,31.61
2018-05-29T10:05:51.891Z,31.31
2018-05-29T10:08:19.354Z,31.31
2018-05-29T10:10:46.843Z,30.92
2018-05-29T10:13:14.370Z,31.32
2018-05-29T10:15:41.822Z,31.35
2018-05-29T10:18:09.299Z,31.37
2018-05-29T10:20:36.766Z,31.07
2018-05-29T10:23:04.240Z,31.62
2018-05-29T10:25:31.706Z,31.66
2018-05-29T10:27:59.180Z,32.16
2018-05-29T10:30:26.643Z,32.64
2018-05-29T10:32:54.140Z,32.55
2018-05-29T10:35:21.611Z,32.45
2018-05-29T10:37:49.079Z,32.72
2018-05-29T10:40:16.558Z,32.36
2018-05-29T10:42:44.027Z,32.21
2018-05-29T10:45:11.514Z,32.93
2018-05-29T10:47:38.980Z,32.67
2018-05-29T10:50:06.452Z,33.01
2018-05-29T10:52:33.997Z,32.87
2018-05-29T10:55:01.420Z,32.63
2018-05-29T10:57:28.908Z,32.59
2018-05-29T10:59:56.380Z,32.77
2018-05-29T11:02:23.844Z,32.86
2018-05-29T11:04:51.336Z,32.38
2018-05-29T11:07:18.805Z,32.88
2018-05-29T11:09:46.748Z,33.90
2018-05-29T11:12:14.215Z,33.06
2018-05-29T11:14:41.675Z,33.78
2018-05-29T11:17:09.148Z,33.65
2018-05-29T11:19:36.607Z,33.47
2018-05-29T11:22:04.106Z,33.49
2018-05-29T11:24:31.572Z,33.61
2018-05-29T11:26:59.051Z,33.31
2018-05-29T11:29:26.530Z,31.65
2018-05-29T11:31:54.001Z,33.34
2018-05-29T11:34:21.488Z,33.36
2018-05-29T11:36:49.000Z,34.79
2018-05-29T11:39:16.467Z,34.52
2018-05-29T11:41:43.952Z,35.53
2018-05-29T11:44:11.412Z,35.74
2018-05-29T11:46:38.907Z,36.16
2018-05-29T11:49:06.369Z,35.49
2018-05-29T11:51:33.836Z,35.47
2018-05-29T11:54:01.320Z,35.81
2018-05-29T11:56:28.792Z,34.72
2018-05-29T11:58:56.291Z,35.72
2018-05-29T12:01:23.759Z,35.08
2018-05-29T12:03:51.240Z,36.69
2018-05-29T12:06:18.705Z,36.55
2018-05-29T12:08:46.173Z,38.26
2018-05-29T12:11:13.653Z,36.04
2018-05-29T12:13:41.117Z,35.35
2018-05-29T12:16:08.604Z,35.95
2018-05-29T12:18:36.085Z,34.98
2018-05-29T12:21:03.551Z,35.58
2018-05-29T12:23:31.037Z,35.27
2018-05-29T12:25:58.502Z,34.64
2018-05-29T12:28:26.005Z,35.90
2018-05-29T12:30:53.481Z,36.04
2018-05-29T12:33:20.958Z,36.18
2018-05-29T12:35:48.431Z,35.01
2018-05-29T12:38:15.895Z,36.31
2018-05-29T12:40:43.380Z,34.88
2018-05-29T12:43:10.831Z,34.70
2018-05-29T12:45:38.302Z,35.79
2018-05-29T12:48:05.791Z,35.70
2018-05-29T12:50:33.267Z,35.14
2018-05-29T12:53:00.762Z,34.46
2018-05-29T12:55:28.231Z,35.57
2018-05-29T12:57:55.718Z,35.35
2018-05-29T13:00:23.198Z,35.99
2018-05-29T13:02:50.679Z,36.15
2018-05-29T13:05:18.185Z,36.50
2018-05-29T13:07:45.689Z,35.45
2018-05-29T13:10:13.168Z,35.04
2018-05-29T13:12:40.636Z,35.03
2018-05-29T13:15:08.175Z,34.52
2018-05-29T13:17:35.636Z,34.25
2018-05-29T13:20:03.096Z,33.96
2018-05-29T13:22:30.631Z,33.62
2018-05-29T13:24:58.065Z,34.99
2018-05-29T13:27:25.648Z,35.23
2018-05-29T13:29:53.108Z,36.10
2018-05-29T13:32:20.573Z,37.57
2018-05-29T13:34:48.058Z,38.45
2018-05-29T13:37:15.567Z,38.47
2018-05-29T13:39:43.044Z,38.90
2018-05-29T13:42:10.508Z,37.38
2018-05-29T13:44:37.982Z,38.30
2018-05-29T13:47:05.510Z,38.78
2018-05-29T13:49:32.981Z,39.16
2018-05-29T13:52:00.480Z,37.70
2018-05-29T13:54:27.947Z,39.36
2018-05-29T13:56:55.431Z,40.03
2018-05-29T13:59:22.941Z,39.84
2018-05-29T14:01:50.401Z,39.08
2018-05-29T14:04:17.889Z,39.01
2018-05-29T14:06:45.356Z,38.90
2018-05-29T14:09:12.812Z,39.78
2018-05-29T14:11:40.303Z,38.24
2018-05-29T14:14:07.775Z,37.14
2018-05-29T14:16:35.276Z,37.24
2018-05-29T14:19:02.744Z,37.28
2018-05-29T14:21:30.567Z,39.33
2018-05-29T14:23:58.055Z,39.94
2018-05-29T14:26:25.516Z,39.59
2018-05-29T14:28:52.999Z,40.52
2018-05-29T14:31:20.468Z,39.25
2018-05-29T14:33:47.953Z,38.09
2018-05-29T14:36:15.420Z,39.20
2018-05-29T14:38:42.883Z,40.22
2018-05-29T14:41:10.355Z,38.72
2018-05-29T14:43:37.810Z,39.20
2018-05-29T14:46:05.306Z,39.69
2018-05-29T14:48:32.780Z,39.15
2018-05-29T14:51:00.248Z,38.12
2018-05-29T14:53:27.732Z,38.00
2018-05-29T14:55:55.201Z,39.08
2018-05-29T14:58:22.692Z,36.62
2018-05-29T15:00:50.801Z,36.36
2018-05-29T15:03:18.269Z,34.46
2018-05-29T15:05:45.753Z,33.70
2018-05-29T15:08:13.218Z,33.60
2018-05-29T15:10:40.707Z,33.00
2018-05-29T15:13:08.177Z,32.67
2018-05-29T15:15:35.654Z,34.34
2018-05-29T15:18:03.122Z,33.49
2018-05-29T15:20:30.580Z,33.79
2018-05-29T15:22:58.063Z,34.71
2018-05-29T15:25:25.524Z,35.44
2018-05-29T15:27:53.004Z,34.50
2018-05-29T15:30:20.464Z,34.31
2018-05-29T15:32:47.966Z,36.03
2018-05-29T15:35:15.444Z,35.37
2018-05-29T15:37:42.912Z,35.74
2018-05-29T15:40:10.398Z,35.67
2018-05-29T15:42:37.854Z,35.57
2018-05-29T15:45:05.320Z,36.62
2018-05-29T15:47:32.803Z,35.81
2018-05-29T15:50:00.527Z,33.51
2018-05-29T15:52:28.036Z,33.95
2018-05-29T15:54:55.794Z,31.91
2018-05-29T15:57:23.236Z,32.05
2018-05-29T15:59:50.744Z,32.08
2018-05-29T16:02:18.182Z,31.32
2018-05-29T16:04:45.663Z,31.69
2018-05-29T16:07:13.137Z,30.72
2018-05-29T16:09:40.617Z,29.97
2018-05-29T16:12:08.079Z,29.96
2018-05-29T16:14:35.541Z,29.90
2018-05-29T16:17:03.024Z,30.11
2018-05-29T16:19:30.501Z,29.52
2018-05-29T16:21:58.263Z,29.33
2018-05-29T16:24:25.723Z,29.63
2018-05-29T16:26:53.197Z,29.24
2018-05-29T16:29:20.689Z,29.42
2018-05-29T16:31:48.154Z,29.10
2018-05-29T16:34:15.638Z,29.42
2018-05-29T16:36:43.093Z,29.38
2018-05-29T16:39:10.692Z,29.31
2018-05-29T16:41:38.198Z,29.19
2018-05-29T16:44:05.660Z,29.36
2018-05-29T16:46:33.148Z,29.02
2018-05-29T16:49:00.617Z,29.10
2018-05-29T16:51:28.083Z,28.76
2018-05-29T16:53:55.558Z,28.66
2018-05-29T16:56:23.039Z,28.68
2018-05-29T16:58:50.506Z,28.62
2018-05-29T17:01:17.979Z,28.48
2018-05-29T17:03:45.460Z,28.70
2018-05-29T17:06:12.932Z,28.60
2018-05-29T17:08:40.393Z,28.57
2018-05-29T17:11:07.921Z,28.48
2018-05-29T17:13:35.393Z,28.38
2018-05-29T17:16:02.873Z,28.44
2018-05-29T17:18:30.437Z,28.11
2018-05-29T17:20:57.888Z,28.47
2018-05-29T17:23:25.377Z,28.17
2018-05-29T17:25:52.856Z,28.37
2018-05-29T17:28:20.350Z,28.20
2018-05-29T17:30:47.813Z,27.94
2018-05-29T17:33:15.268Z,28.08
2018-05-29T17:35:42.752Z,28.11
2018-05-29T17:38:10.983Z,27.93
2018-05-29T17:40:38.533Z,27.89
2018-05-29T17:43:06.017Z,27.87
2018-05-29T17:45:33.559Z,27.60
2018-05-29T17:48:01.081Z,27.53
2018-05-29T17:50:28.555Z,27.43
2018-05-29T17:52:56.035Z,27.39
2018-05-29T17:55:23.513Z,27.20
2018-05-29T17:57:50.995Z,27.28
2018-05-29T18:00:19.343Z,27.27
2018-05-29T18:02:46.868Z,27.11
2018-05-29T18:05:14.642Z,26.99
2018-05-29T18:07:42.099Z,27.17
2018-05-29T18:10:09.588Z,26.94
2018-05-29T18:12:37.069Z,27.07
2018-05-29T18:15:04.597Z,27.22
2018-05-29T18:17:32.074Z,26.99
2018-05-29T18:19:59.545Z,26.92
2018-05-29T18:22:27.020Z,26.83
2018-05-29T18:24:54.488Z,27.01
2018-05-29T18:27:21.984Z,26.77
2018-05-29T18:29:49.439Z,26.75
2018-05-29T18:32:16.893Z,26.77
2018-05-29T18:34:44.369Z,26.78
2018-05-29T18:37:11.833Z,26.72
2018-05-29T18:39:39.324Z,26.56
2018-05-29T18:42:06.784Z,26.51
2018-05-29T18:44:34.283Z,26.51
2018-05-29T18:47:01.771Z,26.46
2018-05-29T18:49:29.234Z,26.46
2018-05-29T18:51:56.755Z,26.25
2018-05-29T18:54:24.240Z,26.39
2018-05-29T18:56:51.702Z,26.19
2018-05-29T18:59:19.193Z,26.21
2018-05-29T19:01:46.807Z,26.21
2018-05-29T19:04:14.541Z,25.96
2018-05-29T19:06:42.027Z,26.00
2018-05-29T19:09:09.864Z,26.01
2018-05-29T19:11:37.845Z,25.87
2018-05-29T19:14:05.637Z,25.92
2018-05-29T19:16:33.162Z,25.76
2018-05-29T19:19:00.678Z,25.77
2018-05-29T19:21:28.216Z,25.78
2018-05-29T19:23:56.029Z,25.68
2018-05-29T19:26:23.482Z,25.58
2018-05-29T19:28:51.279Z,25.61
2018-05-29T19:31:18.806Z,25.64
2018-05-29T19:33:47.034Z,25.55
2018-05-29T19:36:14.867Z,25.41
2018-05-29T19:38:42.322Z,25.40
2018-05-29T19:41:10.468Z,25.29
2018-05-29T19:43:37.981Z,25.28
2018-05-29T19:46:05.421Z,25.19
2018-05-29T19:48:33.085Z,25.17
2018-05-29T19:51:01.076Z,25.04
2018-05-29T19:53:28.653Z,25.03
2018-05-29T19:55:56.103Z,25.06
2018-05-29T19:58:23.853Z,25.02
2018-05-29T20:00:51.328Z,24.88
2018-05-29T20:03:18.839Z,24.81
2018-05-29T20:05:46.336Z,24.70
2018-05-29T20:08:13.799Z,24.70
2018-05-29T20:10:41.294Z,24.57
2018-05-29T20:13:08.768Z,24.71
2018-05-29T20:15:36.232Z,24.71
2018-05-29T20:18:03.708Z,24.65
2018-05-29T20:20:32.174Z,24.55
2018-05-29T20:22:59.699Z,24.56
2018-05-29T20:25:27.168Z,24.46
2018-05-29T20:27:54.648Z,24.43
2018-05-29T20:30:22.120Z,24.37
2018-05-29T20:32:49.582Z,24.33
2018-05-29T20:35:17.098Z,24.28
2018-05-29T20:37:44.570Z,24.31
2018-05-29T20:40:12.064Z,24.26
2018-05-29T20:42:39.552Z,24.16
2018-05-29T20:45:07.035Z,24.17
2018-05-29T20:47:35.063Z,24.17
2018-05-29T20:50:02.591Z,24.15
2018-05-29T20:52:30.010Z,24.02
2018-05-29T20:54:57.644Z,24.02
2018-05-29T20:57:25.109Z,23.93
2018-05-29T20:59:53.990Z,24.04
2018-05-29T21:02:21.511Z,24.00
2018-05-29T21:04:48.987Z,23.97
2018-05-29T21:07:16.475Z,24.01
2018-05-29T21:09:43.940Z,24.03
2018-05-29T21:12:11.432Z,23.98
2018-05-29T21:14:39.272Z,23.97
2018-05-29T21:17:06.736Z,23.79
2018-05-29T21:19:34.223Z,23.87
2018-05-29T21:22:01.687Z,23.91
2018-05-29T21:24:29.176Z,23.74
2018-05-29T21:26:56.643Z,23.66
2018-05-29T21:29:24.105Z,23.57
2018-05-29T21:31:51.588Z,23.68
2018-05-29T21:34:19.061Z,23.41
2018-05-29T21:36:46.570Z,23.51
2018-05-29T21:39:14.039Z,23.45
2018-05-29T21:41:41.845Z,23.33
2018-05-29T21:44:09.329Z,23.26
2018-05-29T21:46:36.805Z,23.24
2018-05-29T21:49:04.299Z,23.12
2018-05-29T21:51:31.775Z,22.96
2018-05-29T21:53:59.266Z,22.92
2018-05-29T21:56:26.723Z,22.84
2018-05-29T21:58:54.191Z,22.87
2018-05-29T22:01:21.668Z,22.72
2018-05-29T22:03:49.140Z,22.74
2018-05-29T22:06:16.639Z,22.68
2018-05-29T22:08:44.116Z,22.80
2018-05-29T22:11:11.670Z,22.78
2018-05-29T22:13:39.167Z,22.82
2018-05-29T22:16:06.628Z,22.84
2018-05-29T22:18:34.123Z,22.88
2018-05-29T22:21:01.677Z,22.90
2018-05-29T22:23:29.111Z,22.78
2018-05-29T22:25:56.576Z,22.79
2018-05-29T22:28:24.048Z,22.93
2018-05-29T22:30:51.523Z,22.80
2018-05-29T22:33:18.990Z,22.82
2018-05-29T22:35:47.405Z,22.88
2018-05-29T22:38:14.866Z,22.81
2018-05-29T22:40:42.332Z,22.92
2018-05-29T22:43:09.825Z,22.93
2018-05-29T22:45:37.299Z,22.90
2018-05-29T22:48:04.786Z,22.94
2018-05-29T22:50:32.257Z,23.06
2018-05-29T22:52:59.723Z,23.02
2018-05-29T22:55:27.220Z,23.10
2018-05-29T22:57:54.697Z,22.97
2018-05-29T23:00:22.192Z,23.03
2018-05-29T23:02:49.658Z,23.15
2018-05-29T23:05:17.150Z,23.19
2018-05-29T23:07:45.866Z,23.18
2018-05-29T23:10:13.329Z,23.07
2018-05-29T23:12:40.815Z,23.00
2018-05-29T23:15:08.284Z,23.20
2018-05-29T23:17:35.785Z,23.14
2018-05-29T23:20:03.316Z,23.35
2018-05-29T23:22:30.786Z,23.28
2018-05-29T23:24:58.272Z,23.21
2018-05-29T23:27:25.735Z,23.16
2018-05-29T23:29:53.222Z,22.98
2018-05-29T23:32:20.691Z,22.89
2018-05-29T23:34:48.175Z,22.92
2018-05-29T23:37:15.648Z,22.86
2018-05-29T23:39:43.108Z,22.90
2018-05-29T23:42:10.600Z,22.88
2018-05-29T23:44:38.056Z,22.90
2018-05-29T23:47:05.534Z,22.82
2018-05-29T23:49:32.995Z,22.76
2018-05-29T23:52:00.484Z,22.65
2018-05-29T23:54:27.943Z,22.55
2018-05-29T23:56:55.415Z,22.51
2018-05-29T23:59:22.896Z,22.42
